Time;durP1;ratioP1;P1;durP2;ratioP2;P2;SDS_P1;SDS_P2;PMS_P1;PMS_P2;Temp;Humidity;BMP_temperature;BMP_pressure;BME280_temperature;BME280_humidity;BME280_pressure;Samples;Min_cycle;Max_cycle;Signal;HPM_P1;HPM_P2
2022/07/28 00:01:28;;;;;;;1.90;1.80;;;;;;;18.16;59.22;95492.75;5059746;28;20034;-65
2022/07/28 00:03:53;;;;;;;1.73;1.63;;;;;;;18.13;59.46;95486.97;5068549;28;20025;-65
2022/07/28 00:06:18;;;;;;;4.03;2.00;;;;;;;18.12;59.99;95486.13;5055343;28;20072;-66
2022/07/28 00:08:44;;;;;;;3.08;1.98;;;;;;;18.11;60.07;95489.81;5060376;28;20418;-65
2022/07/28 00:11:09;;;;;;;3.63;1.92;;;;;;;18.07;60.37;95491.22;5064619;28;20033;-65
2022/07/28 00:13:35;;;;;;;4.63;1.77;;;;;;;18.04;61.24;95487.13;5054856;28;20035;-65
2022/07/28 00:16:01;;;;;;;3.15;2.10;;;;;;;17.92;61.14;95491.28;5063935;28;20040;-65
2022/07/28 00:18:26;;;;;;;2.92;1.90;;;;;;;17.86;61.73;95482.22;5067276;28;20111;-65
2022/07/28 00:20:51;;;;;;;2.55;1.77;;;;;;;17.82;61.07;95475.66;5054450;28;20021;-65
2022/07/28 00:23:17;;;;;;;2.22;1.98;;;;;;;17.83;61.24;95477.28;5069712;28;20174;-65
2022/07/28 00:25:42;;;;;;;1.90;1.80;;;;;;;17.79;61.33;95476.03;5063356;28;20442;-65
2022/07/28 00:28:07;;;;;;;4.00;2.00;;;;;;;17.80;62.73;95474.22;5058251;28;20055;-65
2022/07/28 00:30:33;;;;;;;2.90;1.88;;;;;;;17.72;62.14;95470.66;5061227;28;20029;-65
2022/07/28 00:33:01;;;;;;;2.28;1.75;;;;;;;17.75;61.35;95475.59;5064258;28;20029;-65
2022/07/28 00:35:26;;;;;;;2.05;1.92;;;;;;;17.69;62.74;95465.72;5057444;28;20033;-65
2022/07/28 00:37:51;;;;;;;2.28;1.77;;;;;;;17.69;61.73;95470.25;5060490;28;20441;-65
2022/07/28 00:40:17;;;;;;;2.45;1.83;;;;;;;17.70;62.70;95470.03;5064920;28;20033;-66
2022/07/28 00:42:42;;;;;;;2.63;2.20;;;;;;;17.77;62.30;95470.09;5055858;28;20016;-65
2022/07/28 00:45:08;;;;;;;2.30;2.10;;;;;;;17.70;63.10;95475.34;5059318;28;20475;-65
2022/07/28 00:47:33;;;;;;;2.50;2.08;;;;;;;17.65;62.97;95480.44;5060942;28;20048;-65
2022/07/28 00:49:59;;;;;;;2.55;2.22;;;;;;;17.71;61.73;95484.19;5060076;28;20521;-65
2022/07/28 00:52:25;;;;;;;2.55;1.85;;;;;;;17.86;61.52;95484.91;5056963;28;20017;-65
2022/07/28 00:54:51;;;;;;;1.60;1.58;;;;;;;17.83;61.60;95489.81;5060342;28;20514;-65
2022/07/28 00:57:16;;;;;;;4.20;1.80;;;;;;;17.77;61.89;95488.72;5052210;28;20063;-65
2022/07/28 00:59:42;;;;;;;2.65;1.98;;;;;;;17.66;62.27;95481.25;5054564;28;20021;-65
2022/07/28 01:02:07;;;;;;;1.98;1.77;;;;;;;17.60;61.83;95483.66;5061508;28;20021;-65
2022/07/28 01:04:33;;;;;;;2.83;1.90;;;;;;;17.60;62.04;95483.66;5062272;28;20039;-65
2022/07/28 01:07:09;;;;;;;2.05;1.85;;;;;;;17.50;64.74;95485.00;5062042;28;20488;-65
2022/07/28 01:09:34;;;;;;;2.10;2.00;;;;;;;17.41;63.40;95487.78;5063664;28;20020;-65
2022/07/28 01:12:15;;;;;;;3.05;2.10;;;;;;;17.34;64.25;95484.22;5063369;28;20029;-65
2022/07/28 01:14:45;;;;;;;2.35;1.73;;;;;;;17.27;63.99;95489.50;5063371;28;20112;-65
2022/07/28 01:17:23;;;;;;;2.40;2.20;;;;;;;17.22;63.66;95486.56;5055712;28;20028;-65
2022/07/28 01:20:08;;;;;;;2.15;1.92;;;;;;;17.17;64.18;95494.28;5056740;28;20040;-65
2022/07/28 01:22:41;;;;;;;2.95;2.10;;;;;;;17.17;64.35;95484.50;5061778;28;20028;-65
2022/07/28 01:25:15;;;;;;;2.10;1.90;;;;;;;17.16;63.96;95485.50;5063427;28;20500;-65
2022/07/28 01:27:59;;;;;;;2.28;1.70;;;;;;;17.17;63.91;95494.28;5062205;28;20541;-65
2022/07/28 01:30:40;;;;;;;2.10;2.00;;;;;;;17.20;64.38;95496.56;5063937;28;20032;-65
2022/07/28 01:33:14;;;;;;;2.75;1.90;;;;;;;17.14;65.04;95500.00;5060309;28;20028;-65
2022/07/28 01:35:45;;;;;;;3.28;2.20;;;;;;;17.11;65.53;95495.06;5057365;28;20519;-65
2022/07/28 01:38:13;;;;;;;5.05;2.13;;;;;;;17.08;65.28;95488.25;5065090;28;20036;-65
2022/07/28 01:40:43;;;;;;;2.03;1.92;;;;;;;17.04;64.84;95484.34;5067753;28;20045;-65
2022/07/28 01:43:13;;;;;;;2.05;1.90;;;;;;;16.98;64.97;95485.06;5057272;28;20016;-65
2022/07/28 01:45:40;;;;;;;1.98;1.80;;;;;;;16.97;64.68;95488.72;5061939;28;20511;-65
2022/07/28 01:48:07;;;;;;;2.45;2.03;;;;;;;16.97;65.15;95488.72;5057254;28;20016;-65
2022/07/28 01:50:33;;;;;;;1.70;1.70;;;;;;;16.97;65.25;95484.22;5062476;28;20024;-65
2022/07/28 01:52:59;;;;;;;1.83;1.67;;;;;;;16.94;65.47;95489.09;5062837;28;20063;-65
2022/07/28 01:55:27;;;;;;;2.17;1.80;;;;;;;16.92;65.33;95489.28;5056420;28;20025;-65
2022/07/28 01:57:55;;;;;;;2.95;2.00;;;;;;;16.86;66.27;95493.50;5061443;28;20045;-65
2022/07/28 02:00:24;;;;;;;2.03;1.92;;;;;;;16.82;65.75;95489.56;5071292;28;20115;-65
2022/07/28 02:02:51;;;;;;;3.50;1.95;;;;;;;16.85;65.33;95486.53;5054739;28;20032;-65
2022/07/28 02:05:20;;;;;;;1.90;1.80;;;;;;;16.79;66.69;95487.28;5065068;28;20036;-65
2022/07/28 02:07:47;;;;;;;2.47;2.05;;;;;;;16.75;67.49;95480.69;5067181;28;20396;-65
2022/07/28 02:10:15;;;;;;;2.40;1.85;;;;;;;16.77;66.72;95486.66;5058602;28;20111;-65
2022/07/28 02:12:43;;;;;;;2.00;1.88;;;;;;;16.73;66.27;95483.53;5053443;28;20025;-65
2022/07/28 02:15:11;;;;;;;2.25;2.05;;;;;;;16.70;66.29;95472.47;5058582;28;20036;-65
2022/07/28 02:17:39;;;;;;;2.25;2.05;;;;;;;16.68;66.30;95474.47;5062824;28;20032;-65
2022/07/28 02:20:08;;;;;;;2.35;2.17;;;;;;;16.66;66.89;95481.81;5056109;28;20028;-65
2022/07/28 02:22:36;;;;;;;3.58;2.20;;;;;;;16.58;67.76;95474.78;5058227;28;20590;-65
2022/07/28 02:25:03;;;;;;;3.33;1.92;;;;;;;16.55;67.25;95473.31;5055398;28;20120;-65
2022/07/28 02:27:40;;;;;;;2.17;1.98;;;;;;;16.55;67.03;95470.66;5073392;28;20039;-64
2022/07/28 02:30:10;;;;;;;2.38;2.28;;;;;;;16.58;66.51;95467.63;5061655;28;20020;-65
2022/07/28 02:33:01;;;;;;;2.10;1.90;;;;;;;16.61;66.74;95467.25;5063059;28;20040;-64
2022/07/28 02:35:29;;;;;;;6.55;2.08;;;;;;;16.60;66.70;95472.75;5060779;28;20017;-65
2022/07/28 02:38:01;;;;;;;2.60;1.95;;;;;;;16.50;67.16;95467.72;5052777;28;20036;-65
2022/07/28 02:40:34;;;;;;;3.20;2.22;;;;;;;16.47;66.91;95463.59;5058514;28;20144;-65
2022/07/28 02:43:01;;;;;;;2.50;2.20;;;;;;;16.49;67.63;95460.75;5070750;28;20033;-65
2022/07/28 02:45:30;;;;;;;2.30;2.10;;;;;;;16.48;67.74;95461.78;5065162;28;20050;-65
2022/07/28 02:48:01;;;;;;;3.35;2.17;;;;;;;16.47;68.19;95454.81;5055913;28;20524;-65
2022/07/28 02:50:28;;;;;;;2.30;2.13;;;;;;;16.37;68.85;95454.25;5058058;28;20021;-65
2022/07/28 02:52:56;;;;;;;3.40;2.13;;;;;;;16.31;68.40;95459.31;5068044;28;20035;-65
2022/07/28 02:55:23;;;;;;;2.85;2.00;;;;;;;16.29;68.89;95456.00;5059345;28;20561;-65
2022/07/28 02:57:49;;;;;;;4.00;2.03;;;;;;;16.22;68.85;95464.88;5059493;28;20072;-65
2022/07/28 03:00:15;;;;;;;2.25;2.05;;;;;;;16.22;68.71;95457.72;5059315;28;20017;-65
2022/07/28 03:02:45;;;;;;;2.28;1.90;;;;;;;16.20;68.81;95466.91;5062604;28;20021;-65
2022/07/28 03:05:12;;;;;;;4.70;2.22;;;;;;;16.14;69.25;95460.47;5060287;28;20112;-64
2022/07/28 03:07:38;;;;;;;2.40;2.20;;;;;;;16.13;69.24;95464.16;5056825;28;20099;-65
2022/07/28 03:10:04;;;;;;;5.10;2.28;;;;;;;16.13;69.69;95464.16;5059728;28;20503;-65
2022/07/28 03:12:29;;;;;;;2.13;2.00;;;;;;;16.13;68.96;95467.59;5061805;28;20024;-65
2022/07/28 03:14:55;;;;;;;2.33;2.13;;;;;;;16.14;69.28;95468.44;5052323;28;20078;-65
2022/07/28 03:17:21;;;;;;;2.20;2.00;;;;;;;16.18;68.33;95465.25;5062024;28;20079;-65
2022/07/28 03:19:47;;;;;;;3.13;2.83;;;;;;;16.18;68.89;95469.72;5061165;28;20025;-65
2022/07/28 03:22:12;;;;;;;3.42;2.00;;;;;;;16.20;68.61;95474.88;5058696;28;20518;-65
2022/07/28 03:24:43;;;;;;;1.90;1.80;;;;;;;16.24;69.02;95468.19;5065467;28;20021;-65
2022/07/28 03:27:20;;;;;;;6.22;4.07;;;;;;;16.20;68.85;95470.38;5070588;28;20029;-65
2022/07/28 03:30:04;;;;;;;2.47;2.28;;;;;;;16.17;69.59;95473.38;5066373;28;20086;-65
2022/07/28 03:32:31;;;;;;;3.80;2.60;;;;;;;16.09;70.71;95469.00;5073551;28;20024;-65
2022/07/28 03:34:57;;;;;;;1.80;1.70;;;;;;;15.93;71.14;95472.63;5065024;28;20440;-65
2022/07/28 03:37:30;;;;;;;3.45;2.10;;;;;;;15.89;71.63;95479.31;5057629;28;20210;-65
2022/07/28 03:39:58;;;;;;;2.30;2.10;;;;;;;15.88;71.11;95475.81;5050834;28;20122;-65
2022/07/28 03:42:25;;;;;;;4.07;2.20;;;;;;;15.90;70.07;95478.31;5060257;28;20032;-65
2022/07/28 03:44:51;;;;;;;2.10;2.00;;;;;;;15.93;70.48;95479.78;5056465;28;20032;-65
2022/07/28 03:47:21;;;;;;;2.35;2.22;;;;;;;15.91;70.28;95482.63;5065116;28;20495;-65
2022/07/28 03:49:47;;;;;;;3.40;2.50;;;;;;;15.87;70.68;95481.31;5057661;28;20025;-65
2022/07/28 03:52:13;;;;;;;2.13;1.92;;;;;;;15.86;70.33;95484.97;5051525;28;20024;-64
2022/07/28 03:54:38;;;;;;;2.53;2.33;;;;;;;15.90;71.11;95494.25;5064719;28;20021;-65
2022/07/28 03:57:03;;;;;;;2.33;2.08;;;;;;;15.87;71.03;95491.91;5064496;28;20595;-65
2022/07/28 03:59:29;;;;;;;3.08;2.75;;;;;;;15.83;71.29;95487.97;5055897;28;20027;-65
2022/07/28 04:01:55;;;;;;;6.95;6.35;;;;;;;15.80;71.42;95496.28;5058748;28;20400;-65
2022/07/28 04:04:21;;;;;;;3.75;3.42;;;;;;;15.86;71.44;95492.94;5060145;28;20304;-65
2022/07/28 04:06:46;;;;;;;3.38;3.10;;;;;;;15.88;71.61;95496.22;5064529;28;20079;-65
2022/07/28 04:09:12;;;;;;;2.97;2.75;;;;;;;15.80;71.73;95493.63;5059319;28;20028;-64
2022/07/28 04:11:37;;;;;;;5.90;2.47;;;;;;;15.78;71.37;95508.91;5060482;28;20021;-65
2022/07/28 04:14:02;;;;;;;4.85;2.58;;;;;;;15.79;71.39;95507.91;5061062;28;20020;-66
2022/07/28 04:16:28;;;;;;;3.70;2.85;;;;;;;15.79;71.32;95507.91;5056466;28;20024;-65
2022/07/28 04:18:53;;;;;;;3.53;2.70;;;;;;;15.79;71.32;95502.59;5064733;28;20017;-65
2022/07/28 04:21:20;;;;;;;2.88;2.45;;;;;;;15.82;71.69;95503.06;5052713;28;20017;-65
2022/07/28 04:23:46;;;;;;;2.55;2.33;;;;;;;15.74;71.73;95501.31;5059892;28;20024;-65
2022/07/28 04:26:11;;;;;;;3.75;2.28;;;;;;;15.65;71.90;95504.19;5061092;28;20082;-65
2022/07/28 04:28:36;;;;;;;2.67;2.40;;;;;;;15.58;72.03;95507.56;5045167;28;20025;-65
2022/07/28 04:31:02;;;;;;;2.30;2.20;;;;;;;15.58;71.94;95510.22;5053580;28;20026;-64
2022/07/28 04:33:28;;;;;;;2.35;2.25;;;;;;;15.61;71.85;95509.06;5060297;28;20531;-65
2022/07/28 04:35:53;;;;;;;4.07;2.50;;;;;;;15.61;71.62;95503.75;5068592;28;20111;-65
2022/07/28 04:38:19;;;;;;;2.45;2.28;;;;;;;15.59;72.26;95503.91;5056494;28;20051;-64
2022/07/28 04:40:48;;;;;;;3.30;2.22;;;;;;;15.63;71.86;95503.56;5062589;28;20112;-65
2022/07/28 04:43:14;;;;;;;3.65;2.53;;;;;;;15.71;71.65;95506.97;5055864;28;20472;-65
2022/07/28 04:45:39;;;;;;;4.78;2.60;;;;;;;15.69;72.00;95505.50;5060496;28;20020;-65
2022/07/28 04:48:05;;;;;;;3.40;3.10;;;;;;;15.61;73.14;95507.22;5066079;28;20108;-65
2022/07/28 04:50:31;;;;;;;2.80;2.60;;;;;;;15.59;72.50;95503.91;5078813;28;20779;-65
2022/07/28 04:52:57;;;;;;;2.50;2.30;;;;;;;15.58;72.33;95510.22;5060792;28;20024;-65
2022/07/28 04:55:23;;;;;;;3.10;2.80;;;;;;;15.61;72.63;95509.88;5062721;28;20036;-65
2022/07/28 04:57:48;;;;;;;2.45;2.25;;;;;;;15.66;72.03;95514.66;5045709;28;20680;-65
2022/07/28 05:00:14;;;;;;;4.50;2.05;;;;;;;15.73;71.55;95517.41;5066853;28;20527;-65
2022/07/28 05:02:41;;;;;;;3.22;2.67;;;;;;;15.69;72.64;95514.28;5061878;28;20024;-65
2022/07/28 05:05:08;;;;;;;3.42;2.35;;;;;;;15.66;73.05;95506.69;5065306;28;20029;-65
2022/07/28 05:07:34;;;;;;;4.22;2.58;;;;;;;15.66;72.93;95514.66;5044375;28;20044;-64
2022/07/28 05:09:59;;;;;;;2.50;2.30;;;;;;;15.67;74.27;95504.84;5053434;28;20428;-65
2022/07/28 05:12:24;;;;;;;4.25;2.60;;;;;;;15.65;73.29;95505.03;5065036;28;20032;-65
2022/07/28 05:14:50;;;;;;;10.23;2.88;;;;;;;15.75;72.53;95508.25;5061148;28;20158;-65
2022/07/28 05:17:15;;;;;;;2.55;2.22;;;;;;;15.78;72.81;95503.59;5061136;28;20042;-65
2022/07/28 05:19:41;;;;;;;6.50;2.63;;;;;;;15.78;72.84;95507.09;5059783;28;20380;-65
2022/07/28 05:22:06;;;;;;;4.05;2.70;;;;;;;15.77;72.94;95513.41;5065320;28;20031;-65
2022/07/28 05:24:31;;;;;;;6.70;2.75;;;;;;;15.84;72.52;95508.22;5055051;28;20055;-64
2022/07/28 05:26:57;;;;;;;3.30;2.47;;;;;;;15.91;72.47;95511.81;5060848;28;20017;-65
2022/07/28 05:29:22;;;;;;;2.75;2.45;;;;;;;15.84;73.37;95508.22;5063744;28;20017;-65
2022/07/28 05:31:48;;;;;;;2.50;2.22;;;;;;;15.91;73.34;95511.81;5056058;28;20017;-65
2022/07/28 05:34:13;;;;;;;4.97;4.18;;;;;;;16.03;72.96;95510.38;5061081;28;20503;-64
2022/07/28 05:36:39;;;;;;;3.65;3.25;;;;;;;16.20;72.33;95504.91;5059000;28;20033;-65
2022/07/28 05:39:04;;;;;;;8.20;3.80;;;;;;;16.35;71.62;95502.25;5061289;28;20017;-65
2022/07/28 05:41:29;;;;;;;7.15;2.90;;;;;;;16.51;70.78;95509.22;5059133;28;20044;-65
2022/07/28 05:43:57;;;;;;;6.38;3.63;;;;;;;16.64;70.11;95510.41;5054755;28;20053;-65
2022/07/28 05:46:22;;;;;;;3.50;2.38;;;;;;;16.72;70.53;95505.81;5057723;28;20574;-65
2022/07/28 05:48:48;;;;;;;5.32;2.65;;;;;;;16.84;70.31;95511.47;5056649;28;20100;-65
2022/07/28 05:51:13;;;;;;;4.90;2.83;;;;;;;17.06;69.54;95516.06;5061920;28;20595;-65
2022/07/28 05:53:39;;;;;;;3.40;2.63;;;;;;;17.18;68.94;95518.06;5070058;28;20475;-65
2022/07/28 05:56:04;;;;;;;7.20;3.58;;;;;;;17.30;68.02;95506.91;5061996;28;20028;-64
2022/07/28 05:58:30;;;;;;;4.70;2.88;;;;;;;17.33;68.10;95522.50;5055518;28;20048;-63
2022/07/28 06:01:02;;;;;;;4.22;2.13;;;;;;;17.41;67.71;95527.72;5054834;28;20036;-64
2022/07/28 06:03:31;;;;;;;3.53;2.42;;;;;;;17.53;67.11;95519.22;5063494;28;20138;-68
2022/07/28 06:05:57;;;;;;;2.97;2.60;;;;;;;17.61;67.65;95519.09;5059251;28;20028;-67
2022/07/28 06:08:25;;;;;;;11.07;2.50;;;;;;;17.69;67.57;95524.28;5043563;28;20115;-67
2022/07/28 06:11:10;;;;;;;3.85;2.40;;;;;;;17.86;66.53;95524.03;5065062;28;20067;-67
2022/07/28 06:13:37;;;;;;;17.67;2.60;;;;;;;17.94;65.27;95521.22;5059899;28;20028;-67
2022/07/28 06:16:06;;;;;;;2.47;2.20;;;;;;;18.02;65.11;95523.78;5062336;28;20381;-67
2022/07/28 06:18:32;;;;;;;5.30;2.20;;;;;;;18.20;64.42;95527.00;5061679;28;20387;-68
2022/07/28 06:20:57;;;;;;;2.65;2.42;;;;;;;18.43;63.94;95529.38;5063179;28;20040;-67
2022/07/28 06:23:23;;;;;;;4.00;2.35;;;;;;;18.69;63.41;95527.91;5060093;28;20438;-67
2022/07/28 06:25:52;;;;;;;2.00;1.80;;;;;;;18.83;62.49;95534.13;5063324;28;20016;-67
2022/07/28 06:28:18;;;;;;;5.55;2.22;;;;;;;19.01;61.24;95534.47;5059216;28;20071;-67
2022/07/28 06:30:47;;;;;;;4.28;2.60;;;;;;;19.25;60.10;95539.47;5057387;28;20024;-67
2022/07/28 06:33:14;;;;;;;2.45;2.25;;;;;;;19.50;59.63;95533.56;5071485;28;20024;-67
2022/07/28 06:35:40;;;;;;;2.95;2.13;;;;;;;19.75;59.21;95541.84;5057883;28;20078;-67
2022/07/28 06:38:05;;;;;;;5.50;2.45;;;;;;;20.06;58.07;95537.78;5063602;28;20056;-67
2022/07/28 06:40:31;;;;;;;5.78;2.58;;;;;;;20.32;56.94;95536.94;5081759;28;20054;-67
2022/07/28 06:42:56;;;;;;;3.05;1.90;;;;;;;20.53;55.06;95540.41;5062597;28;20020;-67
2022/07/28 06:45:21;;;;;;;2.95;2.33;;;;;;;20.65;54.94;95542.44;5055886;28;20399;-67
2022/07/28 06:47:51;;;;;;;6.15;1.83;;;;;;;20.86;53.21;95538.72;5062661;28;20086;-67
2022/07/28 06:50:17;;;;;;;8.68;2.10;;;;;;;21.05;54.43;95534.31;5060599;28;20036;-66
2022/07/28 06:52:43;;;;;;;4.47;2.20;;;;;;;21.31;54.13;95533.41;5059855;28;20024;-66
2022/07/28 06:55:08;;;;;;;3.17;2.10;;;;;;;21.61;54.00;95542.72;5059612;28;20496;-65
2022/07/28 06:57:34;;;;;;;5.60;2.22;;;;;;;21.81;52.35;95539.94;5060557;28;20052;-64
2022/07/28 07:00:03;;;;;;;7.60;1.92;;;;;;;22.16;51.83;95530.59;5057359;28;20031;-65
2022/07/28 07:02:29;;;;;;;3.58;2.05;;;;;;;22.74;50.74;95534.81;5051862;28;20097;-65
2022/07/28 07:04:54;;;;;;;2.40;2.20;;;;;;;22.91;47.75;95526.19;5053908;28;20467;-64
2022/07/28 07:07:22;;;;;;;3.67;2.15;;;;;;;23.07;45.75;95534.69;5053165;28;20169;-65
2022/07/28 07:09:47;;;;;;;3.40;1.95;;;;;;;23.49;46.46;95533.97;5056574;28;20020;-64
2022/07/28 07:12:13;;;;;;;4.70;1.98;;;;;;;23.54;45.71;95534.09;5057615;28;20376;-64
2022/07/28 07:14:38;;;;;;;1.80;1.70;;;;;;;23.75;44.40;95538.94;5053547;28;20043;-65
2022/07/28 07:17:04;;;;;;;2.13;1.73;;;;;;;23.94;44.23;95535.41;5052931;28;20021;-64
2022/07/28 07:19:29;;;;;;;1.98;1.70;;;;;;;24.26;42.07;95533.25;5059508;28;20029;-65
2022/07/28 07:21:54;;;;;;;1.90;1.80;;;;;;;24.26;41.86;95530.56;5053686;28;20035;-64
2022/07/28 07:24:20;;;;;;;3.88;1.80;;;;;;;24.24;42.16;95529.16;5059837;28;20075;-64
2022/07/28 07:26:45;;;;;;;3.15;1.70;;;;;;;24.20;42.56;95522.59;5053195;28;20033;-64
2022/07/28 07:29:10;;;;;;;2.75;1.73;;;;;;;24.30;43.52;95518.28;5053733;28;20056;-65
2022/07/28 07:31:37;;;;;;;3.90;1.70;;;;;;;24.71;42.21;95513.00;5053474;28;20074;-64
2022/07/28 07:34:03;;;;;;;2.65;2.22;;;;;;;24.95;42.10;95512.97;5054292;28;20025;-64
2022/07/28 07:36:29;;;;;;;2.15;1.92;;;;;;;25.17;41.31;95521.25;5072216;28;20035;-64
2022/07/28 07:38:54;;;;;;;2.53;1.90;;;;;;;25.56;40.72;95517.16;5064206;28;20115;-65
2022/07/28 07:41:20;;;;;;;2.42;1.92;;;;;;;25.93;40.86;95500.53;5061362;28;20472;-65
2022/07/28 07:43:46;;;;;;;1.77;1.67;;;;;;;26.12;38.11;95511.91;5059311;28;20029;-65
2022/07/28 07:46:11;;;;;;;2.00;1.83;;;;;;;26.27;38.04;95516.78;5061447;28;20396;-65
2022/07/28 07:48:37;;;;;;;2.58;1.83;;;;;;;26.63;38.07;95502.97;5055525;28;20024;-66
2022/07/28 07:51:02;;;;;;;3.47;1.90;;;;;;;26.66;38.16;95517.88;5062240;28;20025;-65
2022/07/28 07:53:28;;;;;;;1.77;1.50;;;;;;;26.72;36.46;95509.56;5059405;28;20021;-65
2022/07/28 07:55:53;;;;;;;3.33;1.80;;;;;;;26.72;37.15;95508.78;5061161;28;20055;-64
2022/07/28 07:58:19;;;;;;;1.88;1.63;;;;;;;26.41;36.88;95516.41;5059323;28;20462;-63
2022/07/28 08:00:44;;;;;;;4.38;1.80;;;;;;;26.10;38.31;95519.44;5061658;28;20033;-64
2022/07/28 08:03:10;;;;;;;2.15;1.70;;;;;;;26.33;38.17;95516.84;5058454;28;20103;-63
2022/07/28 08:05:35;;;;;;;1.60;1.50;;;;;;;27.19;34.76;95512.09;5057903;28;20024;-64
2022/07/28 08:08:00;;;;;;;1.85;1.70;;;;;;;26.49;36.19;95523.28;5057151;28;20033;-65
2022/07/28 08:10:26;;;;;;;6.90;1.80;;;;;;;26.33;36.87;95523.06;5061522;28;20084;-66
2022/07/28 08:12:51;;;;;;;4.28;1.60;;;;;;;26.55;36.98;95523.09;5054343;28;20692;-65
2022/07/28 08:15:17;;;;;;;3.10;1.83;;;;;;;26.80;35.67;95512.94;5065636;28;20025;-67
2022/07/28 08:17:42;;;;;;;6.55;1.88;;;;;;;26.86;35.15;95517.34;5061563;28;20506;-65
2022/07/28 08:20:08;;;;;;;7.32;1.80;;;;;;;26.78;35.55;95520.47;5059246;28;20400;-64
2022/07/28 08:22:34;;;;;;;5.95;1.90;;;;;;;27.13;35.75;95514.72;5059016;28;20028;-66
2022/07/28 08:24:59;;;;;;;9.48;1.80;;;;;;;27.71;35.27;95519.69;5066710;28;20029;-66
2022/07/28 08:27:25;;;;;;;1.70;1.48;;;;;;;27.59;34.98;95508.22;5062923;28;20499;-65
2022/07/28 08:29:51;;;;;;;3.28;1.75;;;;;;;27.54;35.08;95506.28;5062134;28;20021;-65
2022/07/28 08:32:16;;;;;;;5.80;1.70;;;;;;;27.45;34.13;95514.00;5062970;28;20093;-65
2022/07/28 08:34:41;;;;;;;1.88;1.65;;;;;;;27.94;34.67;95503.41;5076123;28;20025;-65
2022/07/28 08:37:07;;;;;;;6.97;1.70;;;;;;;28.34;33.27;95502.13;5059624;28;20098;-65
2022/07/28 08:39:33;;;;;;;2.78;1.75;;;;;;;27.98;32.56;95497.25;5067416;28;20029;-64
2022/07/28 08:42:16;;;;;;;2.45;2.10;;;;;;;28.29;33.21;95489.38;5062311;28;20036;-64
2022/07/28 08:44:56;;;;;;;1.77;1.65;;;;;;;28.91;31.51;95494.34;5067207;28;20506;-64
2022/07/28 08:47:22;;;;;;;4.03;1.75;;;;;;;27.91;33.41;95488.50;5052103;28;20808;-64
2022/07/28 08:49:48;;;;;;;3.33;1.85;;;;;;;28.15;32.91;95485.44;5065044;28;20032;-64
2022/07/28 08:52:15;;;;;;;2.60;1.70;;;;;;;28.12;32.34;95494.09;5075484;28;20082;-64
2022/07/28 08:54:44;;;;;;;3.30;1.80;;;;;;;28.24;33.13;95489.34;5056945;28;20021;-65
2022/07/28 08:57:17;;;;;;;6.30;2.00;;;;;;;28.12;34.18;95483.25;5055804;28;20099;-65
2022/07/28 08:59:45;;;;;;;4.57;2.08;;;;;;;28.93;31.95;95491.41;5057549;28;20119;-65
2022/07/28 09:02:11;;;;;;;3.15;1.92;;;;;;;28.62;32.77;95480.34;5057318;28;20025;-66
2022/07/28 09:04:38;;;;;;;1.92;1.83;;;;;;;28.98;31.64;95483.28;5056200;28;20033;-64
2022/07/28 09:07:05;;;;;;;1.90;1.65;;;;;;;28.50;32.61;95483.28;5055634;28;20021;-64
2022/07/28 09:09:31;;;;;;;2.47;1.92;;;;;;;28.51;32.50;95476.78;5055256;28;20021;-64
2022/07/28 09:11:57;;;;;;;2.20;1.90;;;;;;;28.47;32.56;95468.38;5061744;28;20070;-67
2022/07/28 09:14:24;;;;;;;3.55;2.13;;;;;;;29.23;30.71;95477.16;5063404;28;20019;-65
2022/07/28 09:16:49;;;;;;;5.88;1.85;;;;;;;28.54;31.99;95477.06;5059565;28;20071;-65
2022/07/28 09:19:15;;;;;;;2.10;1.60;;;;;;;28.59;31.92;95477.09;5066445;28;20049;-64
2022/07/28 09:21:41;;;;;;;2.53;1.50;;;;;;;28.95;32.75;95475.69;5060807;28;20039;-65
2022/07/28 09:24:07;;;;;;;4.63;1.60;;;;;;;29.53;31.70;95472.91;5060160;28;20032;-65
2022/07/28 09:26:32;;;;;;;4.40;1.80;;;;;;;29.69;30.80;95468.31;5063073;28;20035;-66
2022/07/28 09:28:59;;;;;;;1.70;1.60;;;;;;;29.75;30.74;95460.19;5062074;28;20028;-66
2022/07/28 09:31:27;;;;;;;2.63;1.50;;;;;;;29.82;30.23;95466.97;5059940;28;20021;-66
2022/07/28 09:33:54;;;;;;;4.18;1.77;;;;;;;29.63;30.44;95461.25;5089699;28;20032;-66
2022/07/28 09:36:19;;;;;;;1.55;1.45;;;;;;;29.79;30.00;95459.38;5063706;28;21017;-65
2022/07/28 09:38:46;;;;;;;7.38;1.73;;;;;;;29.35;31.09;95460.66;5057915;28;20108;-66
2022/07/28 09:41:12;;;;;;;6.15;1.70;;;;;;;29.39;30.96;95453.59;5064051;28;20044;-66
2022/07/28 09:43:39;;;;;;;2.75;1.70;;;;;;;29.96;30.60;95450.16;5064021;28;20446;-65
2022/07/28 09:46:10;;;;;;;2.92;1.95;;;;;;;30.58;29.29;95452.81;5065107;28;20514;-66
2022/07/28 09:48:48;;;;;;;2.28;2.08;;;;;;;30.79;28.14;95442.72;5081487;28;20024;-65
2022/07/28 09:51:16;;;;;;;3.60;2.00;;;;;;;30.78;29.44;95443.81;5057886;28;20063;-66
2022/07/28 09:53:42;;;;;;;1.73;1.63;;;;;;;30.19;30.27;95450.72;5063931;28;20029;-66
2022/07/28 09:56:09;;;;;;;4.72;1.65;;;;;;;30.68;29.43;95452.00;5043541;28;20017;-66
2022/07/28 09:58:36;;;;;;;2.70;1.70;;;;;;;30.48;29.37;95439.25;5057159;28;20045;-66
2022/07/28 10:01:10;;;;;;;4.75;1.75;;;;;;;30.80;29.64;95447.06;5058462;28;20545;-66
2022/07/28 10:03:37;;;;;;;1.80;1.70;;;;;;;31.20;28.95;95435.50;5068629;28;20020;-65
2022/07/28 10:06:06;;;;;;;4.45;1.63;;;;;;;30.38;29.12;95427.34;5058260;28;20040;-66
2022/07/28 10:08:49;;;;;;;5.05;1.50;;;;;;;31.19;27.69;95425.69;5062476;28;20036;-64
2022/07/28 10:11:16;;;;;;;3.80;1.95;;;;;;;30.95;28.48;95419.03;5055880;28;20407;-66
2022/07/28 10:14:03;;;;;;;2.17;1.65;;;;;;;30.53;29.90;95414.81;5060911;28;20036;-66
2022/07/28 10:16:32;;;;;;;3.83;2.00;;;;;;;31.07;29.21;95410.53;5054613;28;20434;-67
2022/07/28 10:19:00;;;;;;;2.80;1.67;;;;;;;31.16;28.15;95413.47;5063724;28;20392;-67
2022/07/28 10:21:27;;;;;;;2.20;2.00;;;;;;;30.91;29.01;95396.19;5055044;28;20031;-67
2022/07/28 10:23:58;;;;;;;4.10;2.22;;;;;;;31.12;28.86;95402.34;5066306;28;20063;-62
2022/07/28 10:26:28;;;;;;;5.15;2.15;;;;;;;31.10;28.22;95403.72;5063051;28;20309;-62
2022/07/28 10:28:55;;;;;;;2.58;2.00;;;;;;;30.91;28.58;95395.41;5053573;28;20024;-62
2022/07/28 10:31:30;;;;;;;4.97;1.80;;;;;;;31.43;27.88;95390.50;5061671;28;20506;-62
2022/07/28 10:33:59;;;;;;;1.90;1.80;;;;;;;31.78;27.66;95393.25;5081076;28;20490;-63
2022/07/28 10:36:25;;;;;;;8.88;2.00;;;;;;;32.38;26.56;95390.25;5060353;28;20028;-63
2022/07/28 10:38:53;;;;;;;2.72;1.63;;;;;;;32.02;26.74;95390.56;5056127;28;20094;-63
2022/07/28 10:41:20;;;;;;;9.15;1.70;;;;;;;31.88;27.15;95384.19;5064999;28;20031;-61
2022/07/28 10:43:47;;;;;;;3.35;1.85;;;;;;;32.63;25.82;95392.97;5057384;28;20122;-62
2022/07/28 10:46:13;;;;;;;2.00;1.80;;;;;;;32.33;26.04;95389.47;5054255;28;20392;-62
2022/07/28 10:48:39;;;;;;;3.95;1.75;;;;;;;32.47;26.08;95393.16;5056546;28;20021;-61
2022/07/28 10:51:05;;;;;;;4.65;1.58;;;;;;;32.72;24.79;95385.78;5035678;28;20024;-61
2022/07/28 10:53:46;;;;;;;3.75;2.05;;;;;;;32.78;24.89;95390.03;5048416;28;20021;-61
2022/07/28 10:56:26;;;;;;;2.28;1.80;;;;;;;32.75;24.33;95396.09;5059000;28;20525;-61
2022/07/28 10:59:02;;;;;;;3.08;1.85;;;;;;;32.38;25.53;95403.03;5063067;28;20054;-61
2022/07/28 11:01:38;;;;;;;2.10;2.00;;;;;;;32.57;24.12;95392.22;5066909;28;20020;-61
2022/07/28 11:04:04;;;;;;;2.80;1.98;;;;;;;32.27;25.13;95397.69;5063224;28;20048;-61
2022/07/28 11:06:41;;;;;;;2.15;1.83;;;;;;;31.84;25.92;95394.81;5063271;28;20024;-61
2022/07/28 11:09:15;;;;;;;1.95;1.85;;;;;;;32.70;24.35;95394.22;5067275;28;20025;-61
2022/07/28 11:11:43;;;;;;;2.42;2.03;;;;;;;32.39;24.71;95391.06;5066315;28;20025;-62
2022/07/28 11:14:34;;;;;;;4.90;1.90;;;;;;;32.31;24.71;95387.03;5062650;28;20394;-61
2022/07/28 11:17:02;;;;;;;2.75;2.35;;;;;;;33.26;23.71;95393.78;5064698;28;20025;-61
2022/07/28 11:19:29;;;;;;;2.33;2.03;;;;;;;33.29;23.66;95380.38;5062473;28;20024;-61
2022/07/28 11:22:13;;;;;;;6.57;2.08;;;;;;;33.23;24.20;95383.47;5065758;28;20020;-61
2022/07/28 11:24:56;;;;;;;2.83;1.70;;;;;;;33.54;23.89;95389.31;5060060;28;20056;-62
2022/07/28 11:27:57;;;;;;;1.98;1.80;;;;;;;34.14;22.79;95389.72;5066866;28;20115;-61
2022/07/28 11:32:54;;;;;;;4.88;2.20;;;;;;;33.32;23.19;95387.19;5059025;28;20102;-62
2022/07/28 11:35:23;;;;;;;6.43;2.00;;;;;;;32.76;24.24;95377.84;5063443;28;20143;-61
2022/07/28 11:38:01;;;;;;;2.40;1.55;;;;;;;33.24;23.63;95376.91;5048169;28;20310;-61
2022/07/28 11:40:34;;;;;;;3.40;2.20;;;;;;;33.39;23.37;95379.44;5064834;28;20039;-61